sensor_id;sensor_type;location;lat;lon;timestamp;temperature;humidity
20171;DHT22;10245;51.344;6.620;2023-02-01T00:00:38;6.40;83.70
20171;DHT22;10245;51.344;6.620;2023-02-01T00:03:01;6.30;83.90
20171;DHT22;10245;51.344;6.620;2023-02-01T00:05:27;6.40;83.70
20171;DHT22;10245;51.344;6.620;2023-02-01T00:07:50;6.40;83.90
20171;DHT22;10245;51.344;6.620;2023-02-01T00:10:15;6.40;83.80
20171;DHT22;10245;51.344;6.620;2023-02-01T00:12:39;6.40;84.20
20171;DHT22;10245;51.344;6.620;2023-02-01T00:15:02;6.40;84.10
20171;DHT22;10245;51.344;6.620;2023-02-01T00:17:26;6.40;84.40
20171;DHT22;10245;51.344;6.620;2023-02-01T00:19:49;6.40;84.70
20171;DHT22;10245;51.344;6.620;2023-02-01T00:22:13;6.40;84.90
20171;DHT22;10245;51.344;6.620;2023-02-01T00:24:36;6.40;85.30
20171;DHT22;10245;51.344;6.620;2023-02-01T00:27:01;6.40;85.70
20171;DHT22;10245;51.344;6.620;2023-02-01T00:29:24;6.40;85.90
20171;DHT22;10245;51.344;6.620;2023-02-01T00:31:49;6.40;86.50
20171;DHT22;10245;51.344;6.620;2023-02-01T00:34:15;6.50;86.50
20171;DHT22;10245;51.344;6.620;2023-02-01T00:36:39;6.50;86.90
20171;DHT22;10245;51.344;6.620;2023-02-01T00:39:02;6.50;86.90
20171;DHT22;10245;51.344;6.620;2023-02-01T00:41:26;6.50;87.20
20171;DHT22;10245;51.344;6.620;2023-02-01T00:43:51;6.50;87.10
20171;DHT22;10245;51.344;6.620;2023-02-01T00:46:16;6.50;86.80
20171;DHT22;10245;51.344;6.620;2023-02-01T00:48:40;6.40;86.80
20171;DHT22;10245;51.344;6.620;2023-02-01T00:51:06;6.40;86.60
20171;DHT22;10245;51.344;6.620;2023-02-01T00:53:30;6.30;86.40
20171;DHT22;10245;51.344;6.620;2023-02-01T00:55:54;6.50;85.60
20171;DHT22;10245;51.344;6.620;2023-02-01T00:58:18;6.50;84.50
20171;DHT22;10245;51.344;6.620;2023-02-01T01:00:42;6.40;84.40
20171;DHT22;10245;51.344;6.620;2023-02-01T01:03:06;6.40;84.30
20171;DHT22;10245;51.344;6.620;2023-02-01T01:05:39;6.40;84.20
20171;DHT22;10245;51.344;6.620;2023-02-01T01:08:03;6.30;84.50
20171;DHT22;10245;51.344;6.620;2023-02-01T01:10:26;6.30;84.30
20171;DHT22;10245;51.344;6.620;2023-02-01T01:12:49;6.30;83.80
20171;DHT22;10245;51.344;6.620;2023-02-01T01:15:13;6.20;84.30
20171;DHT22;10245;51.344;6.620;2023-02-01T01:17:37;6.10;84.20
20171;DHT22;10245;51.344;6.620;2023-02-01T01:20:01;6.20;84.00
20171;DHT22;10245;51.344;6.620;2023-02-01T01:22:24;6.10;83.70
20171;DHT22;10245;51.344;6.620;2023-02-01T01:24:48;6.10;83.50
20171;DHT22;10245;51.344;6.620;2023-02-01T01:27:11;6.20;83.20
20171;DHT22;10245;51.344;6.620;2023-02-01T01:29:35;6.10;83.10
20171;DHT22;10245;51.344;6.620;2023-02-01T01:31:58;6.10;82.80
20171;DHT22;10245;51.344;6.620;2023-02-01T01:34:23;6.10;82.50
20171;DHT22;10245;51.344;6.620;2023-02-01T01:36:46;6.00;82.80
20171;DHT22;10245;51.344;6.620;2023-02-01T01:39:10;6.00;82.90
20171;DHT22;10245;51.344;6.620;2023-02-01T01:41:33;6.00;81.30
20171;DHT22;10245;51.344;6.620;2023-02-01T01:47:21;6.00;80.80
20171;DHT22;10245;51.344;6.620;2023-02-01T01:49:45;6.00;80.90
20171;DHT22;10245;51.344;6.620;2023-02-01T01:52:09;6.00;80.70
20171;DHT22;10245;51.344;6.620;2023-02-01T01:54:33;5.90;81.20
20171;DHT22;10245;51.344;6.620;2023-02-01T01:57:03;5.70;81.90
20171;DHT22;10245;51.344;6.620;2023-02-01T01:59:28;5.70;81.60
20171;DHT22;10245;51.344;6.620;2023-02-01T02:01:55;5.80;81.60
20171;DHT22;10245;51.344;6.620;2023-02-01T02:04:19;5.70;81.40
20171;DHT22;10245;51.344;6.620;2023-02-01T02:06:47;5.70;81.90
20171;DHT22;10245;51.344;6.620;2023-02-01T02:09:13;5.60;81.90
20171;DHT22;10245;51.344;6.620;2023-02-01T02:11:37;5.60;81.90
20171;DHT22;10245;51.344;6.620;2023-02-01T02:14:02;5.50;82.10
20171;DHT22;10245;51.344;6.620;2023-02-01T02:16:40;5.60;81.50
20171;DHT22;10245;51.344;6.620;2023-02-01T02:19:38;5.50;81.90
20171;DHT22;10245;51.344;6.620;2023-02-01T02:22:28;5.50;81.70
20171;DHT22;10245;51.344;6.620;2023-02-01T02:25:43;5.50;81.70
20171;DHT22;10245;51.344;6.620;2023-02-01T02:28:31;5.50;81.30
20171;DHT22;10245;51.344;6.620;2023-02-01T02:31:58;5.40;81.80
20171;DHT22;10245;51.344;6.620;2023-02-01T02:34:46;5.50;81.00
20171;DHT22;10245;51.344;6.620;2023-02-01T02:37:19;5.50;81.20
20171;DHT22;10245;51.344;6.620;2023-02-01T02:39:53;5.50;80.80
20171;DHT22;10245;51.344;6.620;2023-02-01T02:42:25;5.50;81.00
20171;DHT22;10245;51.344;6.620;2023-02-01T02:45:14;5.50;80.60
20171;DHT22;10245;51.344;6.620;2023-02-01T02:48:04;5.30;81.40
20171;DHT22;10245;51.344;6.620;2023-02-01T02:50:37;5.20;81.80
20171;DHT22;10245;51.344;6.620;2023-02-01T02:53:25;5.20;82.00
20171;DHT22;10245;51.344;6.620;2023-02-01T02:56:12;5.30;81.50
20171;DHT22;10245;51.344;6.620;2023-02-01T02:58:54;5.30;82.00
20171;DHT22;10245;51.344;6.620;2023-02-01T03:01:35;5.20;82.30
20171;DHT22;10245;51.344;6.620;2023-02-01T03:04:17;5.40;82.10
20171;DHT22;10245;51.344;6.620;2023-02-01T03:06:45;5.40;82.30
20171;DHT22;10245;51.344;6.620;2023-02-01T03:09:14;5.30;82.70
20171;DHT22;10245;51.344;6.620;2023-02-01T03:11:43;5.30;83.00
20171;DHT22;10245;51.344;6.620;2023-02-01T03:14:25;5.30;83.10
20171;DHT22;10245;51.344;6.620;2023-02-01T03:16:54;5.30;83.10
20171;DHT22;10245;51.344;6.620;2023-02-01T03:19:24;5.40;83.00
20171;DHT22;10245;51.344;6.620;2023-02-01T03:21:54;5.40;83.20
20171;DHT22;10245;51.344;6.620;2023-02-01T03:24:22;5.40;83.10
20171;DHT22;10245;51.344;6.620;2023-02-01T03:26:57;5.40;83.30
20171;DHT22;10245;51.344;6.620;2023-02-01T03:29:29;5.40;83.60
20171;DHT22;10245;51.344;6.620;2023-02-01T03:31:54;5.50;83.20
20171;DHT22;10245;51.344;6.620;2023-02-01T03:34:18;5.50;83.10
20171;DHT22;10245;51.344;6.620;2023-02-01T03:36:46;5.60;82.60
20171;DHT22;10245;51.344;6.620;2023-02-01T03:39:16;5.50;83.40
20171;DHT22;10245;51.344;6.620;2023-02-01T03:41:48;5.60;82.90
20171;DHT22;10245;51.344;6.620;2023-02-01T03:44:17;5.60;82.80
20171;DHT22;10245;51.344;6.620;2023-02-01T03:46:47;5.70;82.70
20171;DHT22;10245;51.344;6.620;2023-02-01T03:49:18;5.60;82.60
20171;DHT22;10245;51.344;6.620;2023-02-01T03:51:43;5.70;82.50
20171;DHT22;10245;51.344;6.620;2023-02-01T03:54:09;5.70;82.80
20171;DHT22;10245;51.344;6.620;2023-02-01T03:56:38;5.70;82.70
20171;DHT22;10245;51.344;6.620;2023-02-01T03:59:03;5.70;82.80
20171;DHT22;10245;51.344;6.620;2023-02-01T04:01:30;5.70;82.70
20171;DHT22;10245;51.344;6.620;2023-02-01T04:03:55;5.80;82.00
20171;DHT22;10245;51.344;6.620;2023-02-01T04:06:19;5.70;82.40
20171;DHT22;10245;51.344;6.620;2023-02-01T04:08:43;5.80;82.40
20171;DHT22;10245;51.344;6.620;2023-02-01T04:11:08;5.80;82.10
20171;DHT22;10245;51.344;6.620;2023-02-01T04:13:31;5.90;81.80
20171;DHT22;10245;51.344;6.620;2023-02-01T04:15:54;5.70;82.20
20171;DHT22;10245;51.344;6.620;2023-02-01T04:18:17;5.70;82.10
20171;DHT22;10245;51.344;6.620;2023-02-01T04:20:42;5.60;82.40
20171;DHT22;10245;51.344;6.620;2023-02-01T04:23:06;5.70;82.00
20171;DHT22;10245;51.344;6.620;2023-02-01T04:25:30;5.70;82.30
20171;DHT22;10245;51.344;6.620;2023-02-01T04:27:54;5.70;82.30
20171;DHT22;10245;51.344;6.620;2023-02-01T04:30:17;5.70;82.40
20171;DHT22;10245;51.344;6.620;2023-02-01T04:32:41;5.60;82.60
20171;DHT22;10245;51.344;6.620;2023-02-01T04:35:06;5.70;82.30
20171;DHT22;10245;51.344;6.620;2023-02-01T04:37:30;5.70;82.20
20171;DHT22;10245;51.344;6.620;2023-02-01T04:39:54;5.60;82.50
20171;DHT22;10245;51.344;6.620;2023-02-01T04:42:17;5.60;82.70
20171;DHT22;10245;51.344;6.620;2023-02-01T04:44:42;5.60;82.40
20171;DHT22;10245;51.344;6.620;2023-02-01T04:47:05;5.50;82.90
20171;DHT22;10245;51.344;6.620;2023-02-01T04:49:28;5.50;83.10
20171;DHT22;10245;51.344;6.620;2023-02-01T04:51:52;5.60;82.80
20171;DHT22;10245;51.344;6.620;2023-02-01T04:54:15;5.50;83.10
20171;DHT22;10245;51.344;6.620;2023-02-01T04:56:39;5.50;83.20
20171;DHT22;10245;51.344;6.620;2023-02-01T04:59:02;5.60;83.10
20171;DHT22;10245;51.344;6.620;2023-02-01T05:01:27;5.50;83.20
20171;DHT22;10245;51.344;6.620;2023-02-01T05:03:51;5.50;83.30
20171;DHT22;10245;51.344;6.620;2023-02-01T05:06:14;5.50;83.60
20171;DHT22;10245;51.344;6.620;2023-02-01T05:08:37;5.50;83.20
20171;DHT22;10245;51.344;6.620;2023-02-01T05:11:01;5.40;83.70
20171;DHT22;10245;51.344;6.620;2023-02-01T05:13:25;5.40;83.60
20171;DHT22;10245;51.344;6.620;2023-02-01T05:16:14;5.30;83.90
20171;DHT22;10245;51.344;6.620;2023-02-01T05:18:39;5.40;83.60
20171;DHT22;10245;51.344;6.620;2023-02-01T05:21:02;5.30;83.70
20171;DHT22;10245;51.344;6.620;2023-02-01T05:23:26;5.30;83.80
20171;DHT22;10245;51.344;6.620;2023-02-01T05:25:49;5.20;84.20
20171;DHT22;10245;51.344;6.620;2023-02-01T05:28:13;5.30;83.60
20171;DHT22;10245;51.344;6.620;2023-02-01T05:30:36;5.30;83.60
20171;DHT22;10245;51.344;6.620;2023-02-01T05:33:03;5.40;83.60
20171;DHT22;10245;51.344;6.620;2023-02-01T05:35:28;5.30;83.80
20171;DHT22;10245;51.344;6.620;2023-02-01T05:37:51;5.10;84.20
20171;DHT22;10245;51.344;6.620;2023-02-01T05:40:15;5.10;84.30
20171;DHT22;10245;51.344;6.620;2023-02-01T05:42:38;5.30;83.90
20171;DHT22;10245;51.344;6.620;2023-02-01T05:45:02;5.20;83.90
20171;DHT22;10245;51.344;6.620;2023-02-01T05:47:27;5.20;84.00
20171;DHT22;10245;51.344;6.620;2023-02-01T05:49:50;5.30;83.70
20171;DHT22;10245;51.344;6.620;2023-02-01T05:52:15;5.20;84.20
20171;DHT22;10245;51.344;6.620;2023-02-01T05:54:40;5.30;84.00
20171;DHT22;10245;51.344;6.620;2023-02-01T05:57:04;5.20;84.20
20171;DHT22;10245;51.344;6.620;2023-02-01T05:59:27;5.10;84.40
20171;DHT22;10245;51.344;6.620;2023-02-01T06:01:51;5.10;84.30
20171;DHT22;10245;51.344;6.620;2023-02-01T06:04:14;5.10;84.40
20171;DHT22;10245;51.344;6.620;2023-02-01T06:06:37;5.10;84.60
20171;DHT22;10245;51.344;6.620;2023-02-01T06:09:02;5.30;84.00
20171;DHT22;10245;51.344;6.620;2023-02-01T06:11:27;5.30;83.90
20171;DHT22;10245;51.344;6.620;2023-02-01T06:13:53;5.30;83.90
20171;DHT22;10245;51.344;6.620;2023-02-01T06:16:17;5.30;84.10
20171;DHT22;10245;51.344;6.620;2023-02-01T06:18:40;5.30;83.90
20171;DHT22;10245;51.344;6.620;2023-02-01T06:21:04;5.30;84.30
20171;DHT22;10245;51.344;6.620;2023-02-01T06:23:28;5.40;84.00
20171;DHT22;10245;51.344;6.620;2023-02-01T06:25:57;5.30;83.90
20171;DHT22;10245;51.344;6.620;2023-02-01T06:28:21;5.40;83.90
20171;DHT22;10245;51.344;6.620;2023-02-01T06:30:45;5.40;83.90
20171;DHT22;10245;51.344;6.620;2023-02-01T06:33:08;5.40;83.70
20171;DHT22;10245;51.344;6.620;2023-02-01T06:35:32;5.50;83.60
20171;DHT22;10245;51.344;6.620;2023-02-01T06:37:55;5.40;84.00
20171;DHT22;10245;51.344;6.620;2023-02-01T06:40:19;5.40;84.00
20171;DHT22;10245;51.344;6.620;2023-02-01T06:42:44;5.50;83.50
20171;DHT22;10245;51.344;6.620;2023-02-01T06:45:08;5.50;83.30
20171;DHT22;10245;51.344;6.620;2023-02-01T06:47:32;5.50;83.50
20171;DHT22;10245;51.344;6.620;2023-02-01T06:49:55;5.50;83.50
20171;DHT22;10245;51.344;6.620;2023-02-01T06:52:19;5.50;83.50
20171;DHT22;10245;51.344;6.620;2023-02-01T06:54:42;5.60;83.10
20171;DHT22;10245;51.344;6.620;2023-02-01T06:57:05;5.50;83.50
20171;DHT22;10245;51.344;6.620;2023-02-01T06:59:30;5.60;83.10
20171;DHT22;10245;51.344;6.620;2023-02-01T07:01:53;5.60;83.20
20171;DHT22;10245;51.344;6.620;2023-02-01T07:04:17;5.60;83.10
20171;DHT22;10245;51.344;6.620;2023-02-01T07:06:40;5.60;83.30
20171;DHT22;10245;51.344;6.620;2023-02-01T07:09:04;5.60;83.20
20171;DHT22;10245;51.344;6.620;2023-02-01T07:11:27;5.70;83.00
20171;DHT22;10245;51.344;6.620;2023-02-01T07:13:50;5.60;83.40
20171;DHT22;10245;51.344;6.620;2023-02-01T07:16:17;5.70;83.40
20171;DHT22;10245;51.344;6.620;2023-02-01T07:18:42;5.70;83.60
20171;DHT22;10245;51.344;6.620;2023-02-01T07:21:06;5.70;83.40
20171;DHT22;10245;51.344;6.620;2023-02-01T07:23:30;5.80;83.20
20171;DHT22;10245;51.344;6.620;2023-02-01T07:25:54;5.70;83.20
20171;DHT22;10245;51.344;6.620;2023-02-01T07:28:18;5.70;83.50
20171;DHT22;10245;51.344;6.620;2023-02-01T07:30:42;5.80;83.40
20171;DHT22;10245;51.344;6.620;2023-02-01T07:33:07;5.70;83.60
20171;DHT22;10245;51.344;6.620;2023-02-01T07:35:31;5.80;83.30
20171;DHT22;10245;51.344;6.620;2023-02-01T07:37:56;5.80;83.20
20171;DHT22;10245;51.344;6.620;2023-02-01T07:40:20;5.90;82.80
20171;DHT22;10245;51.344;6.620;2023-02-01T07:42:50;5.90;82.70
20171;DHT22;10245;51.344;6.620;2023-02-01T07:45:14;6.00;82.60
20171;DHT22;10245;51.344;6.620;2023-02-01T07:47:47;6.00;82.20
20171;DHT22;10245;51.344;6.620;2023-02-01T07:50:13;6.00;82.50
20171;DHT22;10245;51.344;6.620;2023-02-01T07:52:37;6.00;82.60
20171;DHT22;10245;51.344;6.620;2023-02-01T07:55:02;5.90;82.80
20171;DHT22;10245;51.344;6.620;2023-02-01T07:57:25;6.00;82.50
20171;DHT22;10245;51.344;6.620;2023-02-01T07:59:49;6.00;82.60
20171;DHT22;10245;51.344;6.620;2023-02-01T08:02:33;5.90;82.90
20171;DHT22;10245;51.344;6.620;2023-02-01T08:04:57;5.90;83.00
20171;DHT22;10245;51.344;6.620;2023-02-01T08:07:21;5.80;83.30
20171;DHT22;10245;51.344;6.620;2023-02-01T08:09:45;5.90;83.10
20171;DHT22;10245;51.344;6.620;2023-02-01T08:12:08;5.80;83.30
20171;DHT22;10245;51.344;6.620;2023-02-01T08:14:32;5.80;83.10
20171;DHT22;10245;51.344;6.620;2023-02-01T08:16:55;5.80;83.20
20171;DHT22;10245;51.344;6.620;2023-02-01T08:19:19;5.80;83.40
20171;DHT22;10245;51.344;6.620;2023-02-01T08:21:42;5.80;83.50
20171;DHT22;10245;51.344;6.620;2023-02-01T08:24:09;5.80;83.40
20171;DHT22;10245;51.344;6.620;2023-02-01T08:26:33;5.80;83.40
20171;DHT22;10245;51.344;6.620;2023-02-01T08:28:58;5.90;83.20
20171;DHT22;10245;51.344;6.620;2023-02-01T08:31:25;5.80;83.20
20171;DHT22;10245;51.344;6.620;2023-02-01T08:33:52;5.80;83.30
20171;DHT22;10245;51.344;6.620;2023-02-01T08:36:16;5.80;83.20
20171;DHT22;10245;51.344;6.620;2023-02-01T08:38:39;5.90;83.30
20171;DHT22;10245;51.344;6.620;2023-02-01T08:41:08;5.90;83.00
20171;DHT22;10245;51.344;6.620;2023-02-01T08:43:33;5.90;82.90
20171;DHT22;10245;51.344;6.620;2023-02-01T08:45:57;5.80;83.30
20171;DHT22;10245;51.344;6.620;2023-02-01T08:48:20;5.90;83.10
20171;DHT22;10245;51.344;6.620;2023-02-01T08:50:43;5.90;83.20
20171;DHT22;10245;51.344;6.620;2023-02-01T08:53:07;5.90;83.10
20171;DHT22;10245;51.344;6.620;2023-02-01T08:55:30;6.00;82.80
20171;DHT22;10245;51.344;6.620;2023-02-01T08:57:55;6.00;82.50
20171;DHT22;10245;51.344;6.620;2023-02-01T09:00:19;6.00;82.60
20171;DHT22;10245;51.344;6.620;2023-02-01T09:02:43;6.00;82.70
20171;DHT22;10245;51.344;6.620;2023-02-01T09:05:08;6.00;82.70
20171;DHT22;10245;51.344;6.620;2023-02-01T09:07:33;6.00;83.00
20171;DHT22;10245;51.344;6.620;2023-02-01T09:09:56;6.00;82.50
20171;DHT22;10245;51.344;6.620;2023-02-01T09:12:22;6.00;82.80
20171;DHT22;10245;51.344;6.620;2023-02-01T09:14:47;6.00;82.70
20171;DHT22;10245;51.344;6.620;2023-02-01T09:17:10;6.00;82.40
20171;DHT22;10245;51.344;6.620;2023-02-01T09:19:35;6.00;82.40
20171;DHT22;10245;51.344;6.620;2023-02-01T09:21:58;6.00;82.80
20171;DHT22;10245;51.344;6.620;2023-02-01T09:24:21;6.10;82.10
20171;DHT22;10245;51.344;6.620;2023-02-01T09:26:45;6.10;82.30
20171;DHT22;10245;51.344;6.620;2023-02-01T09:29:08;6.10;82.20
20171;DHT22;10245;51.344;6.620;2023-02-01T09:31:36;6.20;82.00
20171;DHT22;10245;51.344;6.620;2023-02-01T09:34:01;6.20;82.10
20171;DHT22;10245;51.344;6.620;2023-02-01T09:36:24;6.20;81.70
20171;DHT22;10245;51.344;6.620;2023-02-01T09:38:49;6.30;82.10
20171;DHT22;10245;51.344;6.620;2023-02-01T09:41:25;6.30;81.60
20171;DHT22;10245;51.344;6.620;2023-02-01T09:43:59;6.30;81.80
20171;DHT22;10245;51.344;6.620;2023-02-01T09:46:32;6.30;82.10
20171;DHT22;10245;51.344;6.620;2023-02-01T09:49:01;6.40;81.80
20171;DHT22;10245;51.344;6.620;2023-02-01T09:51:30;6.40;81.90
20171;DHT22;10245;51.344;6.620;2023-02-01T09:53:59;6.50;81.50
20171;DHT22;10245;51.344;6.620;2023-02-01T09:56:30;6.50;81.60
20171;DHT22;10245;51.344;6.620;2023-02-01T09:59:04;6.40;81.20
20171;DHT22;10245;51.344;6.620;2023-02-01T10:01:33;6.50;81.20
20171;DHT22;10245;51.344;6.620;2023-02-01T10:04:02;6.50;81.30
20171;DHT22;10245;51.344;6.620;2023-02-01T10:06:45;6.50;81.10
20171;DHT22;10245;51.344;6.620;2023-02-01T10:09:25;6.50;81.10
20171;DHT22;10245;51.344;6.620;2023-02-01T10:12:16;6.50;81.00
20171;DHT22;10245;51.344;6.620;2023-02-01T10:15:15;6.60;81.10
20171;DHT22;10245;51.344;6.620;2023-02-01T10:17:56;6.80;80.10
20171;DHT22;10245;51.344;6.620;2023-02-01T10:20:33;6.80;80.60
20171;DHT22;10245;51.344;6.620;2023-02-01T10:23:08;6.80;80.50
20171;DHT22;10245;51.344;6.620;2023-02-01T10:25:55;6.80;79.90
20171;DHT22;10245;51.344;6.620;2023-02-01T10:28:20;6.80;80.20
20171;DHT22;10245;51.344;6.620;2023-02-01T10:30:47;7.00;80.10
20171;DHT22;10245;51.344;6.620;2023-02-01T10:33:16;7.00;79.80
20171;DHT22;10245;51.344;6.620;2023-02-01T10:35:44;7.00;79.60
20171;DHT22;10245;51.344;6.620;2023-02-01T10:38:15;6.90;79.30
20171;DHT22;10245;51.344;6.620;2023-02-01T10:40:41;6.90;79.10
20171;DHT22;10245;51.344;6.620;2023-02-01T10:43:04;7.00;79.40
20171;DHT22;10245;51.344;6.620;2023-02-01T10:45:29;7.00;79.30
20171;DHT22;10245;51.344;6.620;2023-02-01T10:47:55;7.00;79.80
20171;DHT22;10245;51.344;6.620;2023-02-01T10:50:29;7.00;78.90
20171;DHT22;10245;51.344;6.620;2023-02-01T10:53:03;7.00;79.00
20171;DHT22;10245;51.344;6.620;2023-02-01T10:55:33;7.00;79.10
20171;DHT22;10245;51.344;6.620;2023-02-01T10:58:04;7.00;79.00
20171;DHT22;10245;51.344;6.620;2023-02-01T11:00:44;7.00;78.90
20171;DHT22;10245;51.344;6.620;2023-02-01T11:03:34;7.00;78.90
20171;DHT22;10245;51.344;6.620;2023-02-01T11:06:00;7.00;79.20
20171;DHT22;10245;51.344;6.620;2023-02-01T11:08:27;7.00;79.00
20171;DHT22;10245;51.344;6.620;2023-02-01T11:10:58;7.00;78.70
20171;DHT22;10245;51.344;6.620;2023-02-01T11:13:28;7.00;78.40
20171;DHT22;10245;51.344;6.620;2023-02-01T11:15:55;7.10;78.40
20171;DHT22;10245;51.344;6.620;2023-02-01T11:18:25;7.10;78.50
20171;DHT22;10245;51.344;6.620;2023-02-01T11:20:50;7.30;78.60
20171;DHT22;10245;51.344;6.620;2023-02-01T11:23:15;7.30;78.50
20171;DHT22;10245;51.344;6.620;2023-02-01T11:25:48;7.30;78.60
20171;DHT22;10245;51.344;6.620;2023-02-01T11:28:12;7.30;78.20
20171;DHT22;10245;51.344;6.620;2023-02-01T11:30:38;7.30;78.00
20171;DHT22;10245;51.344;6.620;2023-02-01T11:33:05;7.30;77.40
20171;DHT22;10245;51.344;6.620;2023-02-01T11:35:29;7.30;77.80
20171;DHT22;10245;51.344;6.620;2023-02-01T11:37:55;7.30;78.00
20171;DHT22;10245;51.344;6.620;2023-02-01T11:40:27;7.30;77.70
20171;DHT22;10245;51.344;6.620;2023-02-01T11:42:58;7.30;78.00
20171;DHT22;10245;51.344;6.620;2023-02-01T11:45:26;7.40;78.70
20171;DHT22;10245;51.344;6.620;2023-02-01T11:47:52;7.30;78.00
20171;DHT22;10245;51.344;6.620;2023-02-01T11:50:21;7.30;79.40
20171;DHT22;10245;51.344;6.620;2023-02-01T11:53:05;7.40;79.70
20171;DHT22;10245;51.344;6.620;2023-02-01T11:55:49;7.30;79.10
20171;DHT22;10245;51.344;6.620;2023-02-01T11:58:28;7.30;79.50
20171;DHT22;10245;51.344;6.620;2023-02-01T12:01:25;7.40;79.10
20171;DHT22;10245;51.344;6.620;2023-02-01T12:04:26;7.50;78.40
20171;DHT22;10245;51.344;6.620;2023-02-01T12:07:04;7.50;78.80
20171;DHT22;10245;51.344;6.620;2023-02-01T12:09:41;7.50;78.10
20171;DHT22;10245;51.344;6.620;2023-02-01T12:12:17;7.50;77.60
20171;DHT22;10245;51.344;6.620;2023-02-01T12:14:55;7.50;77.30
20171;DHT22;10245;51.344;6.620;2023-02-01T12:17:42;7.50;77.90
20171;DHT22;10245;51.344;6.620;2023-02-01T12:20:24;7.60;77.70
20171;DHT22;10245;51.344;6.620;2023-02-01T12:23:03;7.60;77.40
20171;DHT22;10245;51.344;6.620;2023-02-01T12:25:44;7.50;77.00
20171;DHT22;10245;51.344;6.620;2023-02-01T12:31:44;7.50;77.20
20171;DHT22;10245;51.344;6.620;2023-02-01T12:34:23;7.50;77.60
20171;DHT22;10245;51.344;6.620;2023-02-01T12:36:59;7.50;76.90
20171;DHT22;10245;51.344;6.620;2023-02-01T12:39:32;7.60;76.50
20171;DHT22;10245;51.344;6.620;2023-02-01T12:42:07;7.60;76.40
20171;DHT22;10245;51.344;6.620;2023-02-01T12:44:40;7.50;76.50
20171;DHT22;10245;51.344;6.620;2023-02-01T12:47:14;7.60;76.70
20171;DHT22;10245;51.344;6.620;2023-02-01T12:49:50;7.60;76.60
20171;DHT22;10245;51.344;6.620;2023-02-01T12:52:20;7.60;76.60
20171;DHT22;10245;51.344;6.620;2023-02-01T12:54:49;7.60;76.70
20171;DHT22;10245;51.344;6.620;2023-02-01T12:57:21;7.70;75.50
20171;DHT22;10245;51.344;6.620;2023-02-01T12:59:52;7.70;75.70
20171;DHT22;10245;51.344;6.620;2023-02-01T13:02:25;7.70;75.70
20171;DHT22;10245;51.344;6.620;2023-02-01T13:04:59;7.70;75.50
20171;DHT22;10245;51.344;6.620;2023-02-01T13:07:29;7.70;75.40
20171;DHT22;10245;51.344;6.620;2023-02-01T13:09:59;7.80;75.00
20171;DHT22;10245;51.344;6.620;2023-02-01T13:12:31;7.80;75.00
20171;DHT22;10245;51.344;6.620;2023-02-01T13:15:00;7.90;74.60
20171;DHT22;10245;51.344;6.620;2023-02-01T13:17:29;7.90;75.20
20171;DHT22;10245;51.344;6.620;2023-02-01T13:19:57;7.80;75.20
20171;DHT22;10245;51.344;6.620;2023-02-01T13:22:25;7.90;74.20
20171;DHT22;10245;51.344;6.620;2023-02-01T13:24:53;7.90;74.60
20171;DHT22;10245;51.344;6.620;2023-02-01T13:27:18;7.90;73.90
20171;DHT22;10245;51.344;6.620;2023-02-01T13:29:48;7.90;74.60
20171;DHT22;10245;51.344;6.620;2023-02-01T13:32:35;7.90;74.80
20171;DHT22;10245;51.344;6.620;2023-02-01T13:35:47;7.80;75.10
20171;DHT22;10245;51.344;6.620;2023-02-01T13:38:38;7.90;75.30
20171;DHT22;10245;51.344;6.620;2023-02-01T13:41:23;7.90;74.90
20171;DHT22;10245;51.344;6.620;2023-02-01T13:43:51;8.00;74.20
20171;DHT22;10245;51.344;6.620;2023-02-01T13:46:17;8.00;74.20
20171;DHT22;10245;51.344;6.620;2023-02-01T13:48:48;8.00;74.60
20171;DHT22;10245;51.344;6.620;2023-02-01T13:51:13;8.10;73.60
20171;DHT22;10245;51.344;6.620;2023-02-01T13:53:44;8.00;74.00
20171;DHT22;10245;51.344;6.620;2023-02-01T13:56:12;8.10;73.50
20171;DHT22;10245;51.344;6.620;2023-02-01T13:58:40;8.10;74.10
20171;DHT22;10245;51.344;6.620;2023-02-01T14:01:34;8.10;74.00
20171;DHT22;10245;51.344;6.620;2023-02-01T14:04:01;8.20;73.30
20171;DHT22;10245;51.344;6.620;2023-02-01T14:06:44;8.20;73.60
20171;DHT22;10245;51.344;6.620;2023-02-01T14:09:19;8.20;73.60
20171;DHT22;10245;51.344;6.620;2023-02-01T14:11:55;8.20;73.90
20171;DHT22;10245;51.344;6.620;2023-02-01T14:14:44;8.20;74.40
20171;DHT22;10245;51.344;6.620;2023-02-01T14:17:37;8.20;74.40
20171;DHT22;10245;51.344;6.620;2023-02-01T14:23:23;8.20;74.10
20171;DHT22;10245;51.344;6.620;2023-02-01T14:26:05;8.20;73.90
20171;DHT22;10245;51.344;6.620;2023-02-01T14:28:38;8.30;74.00
20171;DHT22;10245;51.344;6.620;2023-02-01T14:31:28;8.20;73.90
20171;DHT22;10245;51.344;6.620;2023-02-01T14:34:01;8.30;73.80
20171;DHT22;10245;51.344;6.620;2023-02-01T14:36:40;8.30;73.80
20171;DHT22;10245;51.344;6.620;2023-02-01T14:39:19;8.30;74.00
20171;DHT22;10245;51.344;6.620;2023-02-01T14:41:44;8.30;74.20
20171;DHT22;10245;51.344;6.620;2023-02-01T14:44:34;8.30;74.30
20171;DHT22;10245;51.344;6.620;2023-02-01T14:50:33;8.30;74.20
20171;DHT22;10245;51.344;6.620;2023-02-01T14:53:17;8.30;73.80
20171;DHT22;10245;51.344;6.620;2023-02-01T14:55:45;8.30;73.70
20171;DHT22;10245;51.344;6.620;2023-02-01T14:58:16;8.30;74.00
20171;DHT22;10245;51.344;6.620;2023-02-01T15:00:54;8.30;74.40
20171;DHT22;10245;51.344;6.620;2023-02-01T15:03:41;8.30;74.70
20171;DHT22;10245;51.344;6.620;2023-02-01T15:06:32;8.20;74.80
20171;DHT22;10245;51.344;6.620;2023-02-01T15:09:03;8.30;74.50
20171;DHT22;10245;51.344;6.620;2023-02-01T15:11:53;8.30;74.70
20171;DHT22;10245;51.344;6.620;2023-02-01T15:14:18;8.20;74.90
20171;DHT22;10245;51.344;6.620;2023-02-01T15:16:42;8.30;74.90
20171;DHT22;10245;51.344;6.620;2023-02-01T15:19:13;8.30;74.90
20171;DHT22;10245;51.344;6.620;2023-02-01T15:21:45;8.20;74.70
20171;DHT22;10245;51.344;6.620;2023-02-01T15:24:12;8.20;74.90
20171;DHT22;10245;51.344;6.620;2023-02-01T15:26:36;8.30;74.70
20171;DHT22;10245;51.344;6.620;2023-02-01T15:29:00;8.20;74.80
20171;DHT22;10245;51.344;6.620;2023-02-01T15:31:34;8.20;75.20
20171;DHT22;10245;51.344;6.620;2023-02-01T15:33:58;8.20;75.00
20171;DHT22;10245;51.344;6.620;2023-02-01T15:36:22;8.20;75.10
20171;DHT22;10245;51.344;6.620;2023-02-01T15:38:47;8.20;75.40
20171;DHT22;10245;51.344;6.620;2023-02-01T15:41:14;8.20;75.30
20171;DHT22;10245;51.344;6.620;2023-02-01T15:43:40;8.10;75.50
20171;DHT22;10245;51.344;6.620;2023-02-01T15:46:09;8.00;76.00
20171;DHT22;10245;51.344;6.620;2023-02-01T15:48:38;8.10;75.80
20171;DHT22;10245;51.344;6.620;2023-02-01T15:51:10;8.10;76.20
20171;DHT22;10245;51.344;6.620;2023-02-01T15:53:35;8.00;76.10
20171;DHT22;10245;51.344;6.620;2023-02-01T15:56:00;8.00;76.30
20171;DHT22;10245;51.344;6.620;2023-02-01T15:58:28;8.00;76.50
20171;DHT22;10245;51.344;6.620;2023-02-01T16:00:55;8.00;76.60
20171;DHT22;10245;51.344;6.620;2023-02-01T16:03:32;8.00;76.50
20171;DHT22;10245;51.344;6.620;2023-02-01T16:05:59;8.00;76.80
20171;DHT22;10245;51.344;6.620;2023-02-01T16:08:26;8.00;76.70
20171;DHT22;10245;51.344;6.620;2023-02-01T16:10:53;8.00;76.90